createdAt,value
2023-12-05T00:03:53.781Z,100562.08
2023-12-05T00:08:57.449Z,100559.55
2023-12-05T00:14:00.316Z,100558.07
2023-12-05T00:19:03.276Z,100554.79
2023-12-05T00:24:06.463Z,100552.92
2023-12-05T00:29:09.950Z,100553.89
2023-12-05T00:34:12.881Z,100556.81
2023-12-05T00:39:15.930Z,100561.85
2023-12-05T00:44:18.799Z,100561.38
2023-12-05T00:49:21.703Z,100556.45
2023-12-05T00:54:24.678Z,100556.11
2023-12-05T00:59:27.532Z,100552.98
2023-12-05T01:04:30.524Z,100555.02
2023-12-05T01:09:35.667Z,100553.75
2023-12-05T01:14:38.772Z,100556.89
2023-12-05T01:19:41.648Z,100554.98
2023-12-05T01:24:44.638Z,100551.20
2023-12-05T01:29:47.604Z,100549.75
2023-12-05T01:34:50.570Z,100550.88
2023-12-05T01:39:53.962Z,100546.65
2023-12-05T01:44:56.941Z,100545.14
2023-12-05T01:50:00.652Z,100546.01
2023-12-05T01:55:03.890Z,100546.27
2023-12-05T02:00:08.846Z,100545.14
2023-12-05T02:05:12.549Z,100541.64
2023-12-05T02:10:15.563Z,100543.44
2023-12-05T02:15:19.356Z,100544.60
2023-12-05T02:21:00.716Z,100535.48
2023-12-05T02:26:30.802Z,100539.10
2023-12-05T02:31:33.827Z,100535.54
2023-12-05T02:37:00.954Z,100536.42
2023-12-05T02:42:10.128Z,100536.41
2023-12-05T02:47:15.928Z,100532.91
2023-12-05T02:52:18.820Z,100530.73
2023-12-05T02:57:21.692Z,100533.45
2023-12-05T03:02:24.603Z,100533.37
2023-12-05T03:07:28.938Z,100533.52
2023-12-05T03:12:35.358Z,100535.20
2023-12-05T03:17:38.589Z,100534.83
2023-12-05T03:22:41.949Z,100535.59
2023-12-05T03:27:47.420Z,100534.23
2023-12-05T03:32:50.298Z,100529.01
2023-12-05T03:37:53.163Z,100532.52
2023-12-05T03:42:56.064Z,100528.98
2023-12-05T03:47:59.204Z,100534.60
2023-12-05T03:53:02.116Z,100531.45
2023-12-05T03:58:05.447Z,100531.30
2023-12-05T04:03:08.381Z,100528.17
2023-12-05T04:08:11.389Z,100532.89
2023-12-05T04:13:15.410Z,100524.30
2023-12-05T04:18:18.585Z,100524.65
2023-12-05T04:23:21.498Z,100519.36
2023-12-05T04:28:24.497Z,100519.02
2023-12-05T04:33:28.757Z,100514.48
2023-12-05T04:38:34.031Z,100511.50
2023-12-05T04:43:37.463Z,100515.20
2023-12-05T04:48:40.397Z,100512.89
2023-12-05T04:53:43.270Z,100512.50
2023-12-05T04:58:46.123Z,100510.66
2023-12-05T05:03:49.042Z,100508.04
2023-12-05T05:08:53.905Z,100513.87
2023-12-05T05:13:58.894Z,100516.41
2023-12-05T05:19:02.785Z,100519.54
2023-12-05T05:24:06.347Z,100512.98
2023-12-05T05:29:09.916Z,100519.58
2023-12-05T05:34:13.934Z,100520.77
2023-12-05T05:39:16.989Z,100522.90
2023-12-05T05:44:19.906Z,100523.77
2023-12-05T05:49:23.070Z,100521.20
2023-12-05T05:54:26.042Z,100521.16
2023-12-05T05:59:30.235Z,100519.53
2023-12-05T06:04:33.886Z,100515.73
2023-12-05T06:09:38.120Z,100519.16
2023-12-05T06:14:41.061Z,100520.80
2023-12-05T06:19:44.022Z,100517.77
2023-12-05T06:24:47.396Z,100519.02
2023-12-05T06:29:50.694Z,100524.23
2023-12-05T06:34:53.596Z,100528.23
2023-12-05T06:39:58.219Z,100526.83
2023-12-05T06:45:01.779Z,100527.31
2023-12-05T06:50:12.885Z,100531.08
2023-12-05T06:55:16.433Z,100532.40
2023-12-05T07:00:21.000Z,100529.83
2023-12-05T07:05:24.648Z,100530.74
2023-12-05T07:10:28.753Z,100531.86
2023-12-05T07:15:32.589Z,100527.37
2023-12-05T07:20:35.924Z,100532.34
2023-12-05T07:25:38.859Z,100529.83
2023-12-05T07:30:41.723Z,100533.19
2023-12-05T07:35:46.196Z,100530.89
2023-12-05T07:40:51.018Z,100530.83
2023-12-05T07:45:54.730Z,100529.45
2023-12-05T07:50:59.231Z,100537.86
2023-12-05T07:56:02.404Z,100529.27
2023-12-05T08:01:07.146Z,100518.11
2023-12-05T08:06:10.554Z,100510.34
2023-12-05T08:11:13.471Z,100509.15
2023-12-05T08:16:20.515Z,100512.30
2023-12-05T08:21:26.457Z,100513.44
2023-12-05T08:26:35.000Z,100515.77
2023-12-05T08:31:41.123Z,100518.90
2023-12-05T08:36:47.851Z,100519.39
2023-12-05T08:41:52.802Z,100521.66
2023-12-05T08:46:56.439Z,100527.08
2023-12-05T08:52:00.827Z,100524.77
2023-12-05T08:57:04.523Z,100528.59
2023-12-05T09:02:07.521Z,100525.92
2023-12-05T09:07:10.619Z,100527.64
2023-12-05T09:12:13.979Z,100525.27
2023-12-05T09:17:17.644Z,100527.48
2023-12-05T09:22:22.334Z,100522.05
2023-12-05T09:27:25.772Z,100517.98
2023-12-05T09:32:28.863Z,100512.08
2023-12-05T09:37:32.312Z,100511.27
2023-12-05T09:42:36.511Z,100505.83
2023-12-05T09:47:43.277Z,100498.63
2023-12-05T09:52:46.852Z,100494.07
2023-12-05T09:57:52.528Z,100492.00
2023-12-05T10:02:58.476Z,100491.64
2023-12-05T10:08:02.974Z,100490.68
2023-12-05T10:13:07.183Z,100487.23
2023-12-05T10:18:11.048Z,100482.59
2023-12-05T10:23:14.378Z,100477.23
2023-12-05T10:28:18.528Z,100474.19
2023-12-05T10:33:31.580Z,100462.59
2023-12-05T10:38:42.570Z,100456.52
2023-12-05T10:43:50.589Z,100451.28
2023-12-05T10:48:56.182Z,100450.71
2023-12-05T10:54:01.068Z,100450.75
2023-12-05T10:59:05.741Z,100448.21
2023-12-05T11:04:09.276Z,100442.05
2023-12-05T11:09:13.782Z,100435.88
2023-12-05T11:14:18.757Z,100434.89
2023-12-05T11:19:40.951Z,100435.98
2023-12-05T11:25:04.595Z,100433.02
2023-12-05T11:30:29.734Z,100437.77
2023-12-05T11:35:43.454Z,100432.56
2023-12-05T11:41:18.724Z,100430.23
2023-12-05T11:46:22.518Z,100424.89
2023-12-05T11:51:31.527Z,100422.12
2023-12-05T11:56:39.597Z,100411.84
2023-12-05T12:01:43.957Z,100405.13
2023-12-05T12:06:51.718Z,100401.58
2023-12-05T12:11:56.592Z,100394.13
2023-12-05T12:17:08.065Z,100395.81
2023-12-05T12:22:22.036Z,100392.19
2023-12-05T12:27:41.206Z,100392.86
2023-12-05T12:33:08.969Z,100390.66
2023-12-05T12:38:12.525Z,100394.05
2023-12-05T12:43:15.839Z,100392.19
2023-12-05T12:48:18.817Z,100389.16
2023-12-05T12:53:24.484Z,100391.48
2023-12-05T12:58:35.771Z,100390.49
2023-12-05T13:03:39.243Z,100388.85
2023-12-05T13:08:42.998Z,100387.30
2023-12-05T13:13:46.769Z,100381.58
2023-12-05T13:18:49.889Z,100379.51
2023-12-05T13:23:56.164Z,100381.52
2023-12-05T13:28:59.653Z,100383.09
2023-12-05T13:34:03.179Z,100382.27
2023-12-05T13:39:11.718Z,100385.96
2023-12-05T13:44:20.566Z,100392.80
2023-12-05T13:49:24.280Z,100390.30
2023-12-05T13:54:27.438Z,100391.50
2023-12-05T13:59:34.549Z,100400.17
2023-12-05T14:04:37.862Z,100400.66
2023-12-05T14:09:41.066Z,100403.44
2023-12-05T14:14:44.217Z,100411.52
2023-12-05T14:19:49.003Z,100409.09
2023-12-05T14:24:51.983Z,100415.63
2023-12-05T14:29:55.060Z,100421.91
2023-12-05T14:34:59.195Z,100423.80
2023-12-05T14:40:02.648Z,100420.72
2023-12-05T14:45:07.993Z,100416.09
2023-12-05T14:50:13.685Z,100414.55
2023-12-05T14:55:18.533Z,100410.23
2023-12-05T15:00:21.794Z,100411.06
2023-12-05T15:05:25.483Z,100411.83
2023-12-05T15:10:28.544Z,100412.16
2023-12-05T15:15:32.715Z,100414.91
2023-12-05T15:20:37.065Z,100412.27
2023-12-05T15:25:40.992Z,100414.45
2023-12-05T15:30:43.988Z,100414.24
2023-12-05T15:35:48.428Z,100418.21
2023-12-05T15:40:51.473Z,100414.92
2023-12-05T15:45:54.447Z,100421.03
2023-12-05T15:50:59.286Z,100422.30
2023-12-05T15:56:02.243Z,100423.02
2023-12-05T16:01:06.497Z,100417.70
2023-12-05T16:06:12.586Z,100424.81
2023-12-05T16:11:16.750Z,100426.13
2023-12-05T16:16:19.631Z,100418.52
2023-12-05T16:21:22.812Z,100417.10
2023-12-05T16:26:27.757Z,100412.09
2023-12-05T16:31:31.312Z,100418.48
2023-12-05T16:36:37.695Z,100429.23
2023-12-05T16:41:40.960Z,100442.30
2023-12-05T16:46:45.023Z,100445.61
2023-12-05T16:51:47.947Z,100447.70
2023-12-05T16:56:51.922Z,100453.67
2023-12-05T17:01:54.885Z,100455.29
2023-12-05T17:06:59.744Z,100456.66
2023-12-05T17:12:02.977Z,100458.11
2023-12-05T17:17:07.633Z,100454.38
2023-12-05T17:22:12.430Z,100458.36
2023-12-05T17:27:19.581Z,100455.23
2023-12-05T17:32:27.698Z,100456.28
2023-12-05T17:37:33.501Z,100458.98
2023-12-05T17:42:36.480Z,100458.88
2023-12-05T17:47:39.482Z,100460.81
2023-12-05T17:52:45.704Z,100467.38
2023-12-05T17:57:49.285Z,100471.77
2023-12-05T18:02:52.446Z,100461.80
2023-12-05T18:07:58.522Z,100459.63
2023-12-05T18:13:04.124Z,100453.83
2023-12-05T18:18:12.207Z,100455.79
2023-12-05T18:23:15.311Z,100453.89
2023-12-05T18:28:18.202Z,100448.02
2023-12-05T18:33:21.881Z,100448.44
2023-12-05T18:38:29.110Z,100454.54
2023-12-05T18:43:34.029Z,100451.16
2023-12-05T18:48:38.505Z,100448.35
2023-12-05T18:53:44.238Z,100450.06
2023-12-05T18:58:47.883Z,100449.60
2023-12-05T19:03:51.505Z,100452.84
2023-12-05T19:08:55.872Z,100459.10
2023-12-05T19:13:59.347Z,100456.91
2023-12-05T19:19:02.856Z,100450.36
2023-12-05T19:24:05.911Z,100446.68
2023-12-05T19:29:08.830Z,100442.16
2023-12-05T19:34:11.782Z,100444.70
2023-12-05T19:39:14.798Z,100446.65
2023-12-05T19:44:18.072Z,100450.77
2023-12-05T19:49:21.006Z,100448.81
2023-12-05T19:54:27.176Z,100445.14
2023-12-05T19:59:31.912Z,100441.05
2023-12-05T20:04:35.716Z,100440.08
2023-12-05T20:09:39.871Z,100440.88
2023-12-05T20:14:42.855Z,100443.00
2023-12-05T20:19:46.598Z,100443.63
2023-12-05T20:24:49.605Z,100447.71
2023-12-05T20:29:57.093Z,100447.90
2023-12-05T20:35:00.449Z,100447.17
2023-12-05T20:40:04.382Z,100449.19
2023-12-05T20:45:07.756Z,100449.81
2023-12-05T20:50:11.037Z,100450.31
2023-12-05T20:55:14.100Z,100454.23
2023-12-05T21:00:17.278Z,100457.44
2023-12-05T21:05:23.180Z,100459.67
2023-12-05T21:10:26.978Z,100457.68
2023-12-05T21:15:29.810Z,100463.59
2023-12-05T21:20:32.673Z,100461.33
2023-12-05T21:25:35.533Z,100458.59
2023-12-05T21:30:39.367Z,100457.14
2023-12-05T21:35:42.265Z,100457.48
2023-12-05T21:40:45.169Z,100459.60
2023-12-05T21:45:48.489Z,100459.18
2023-12-05T21:50:51.428Z,100458.11
2023-12-05T21:55:55.208Z,100460.30
2023-12-05T22:00:58.094Z,100457.09
2023-12-05T22:06:01.167Z,100459.24
2023-12-05T22:11:06.336Z,100462.52
2023-12-05T22:16:09.704Z,100472.65
2023-12-05T22:21:12.702Z,100475.59
2023-12-05T22:26:17.438Z,100476.77
2023-12-05T22:31:24.965Z,100473.68
2023-12-05T22:36:27.868Z,100478.25
2023-12-05T22:41:31.161Z,100477.04
2023-12-05T22:46:34.399Z,100475.39
2023-12-05T22:51:41.209Z,100476.55
2023-12-05T22:56:44.511Z,100464.58
2023-12-05T23:01:47.818Z,100469.38
2023-12-05T23:06:50.778Z,100473.40
2023-12-05T23:11:54.998Z,100470.77
2023-12-05T23:16:57.831Z,100467.42
2023-12-05T23:22:10.134Z,100462.73
2023-12-05T23:27:13.698Z,100460.27
2023-12-05T23:32:16.586Z,100464.52
2023-12-05T23:37:20.138Z,100470.17
2023-12-05T23:42:23.299Z,100464.89
2023-12-05T23:47:26.488Z,100462.48
2023-12-05T23:52:29.626Z,100461.65
2023-12-05T23:57:33.018Z,100460.50
